createdAt,value
2023-01-17T00:00:00.147Z,89.55
2023-01-17T00:02:26.648Z,89.06
2023-01-17T00:05:11.593Z,89.24
2023-01-17T00:07:56.431Z,88.94
2023-01-17T00:10:25.433Z,88.75
2023-01-17T00:12:57.376Z,88.82
2023-01-17T00:15:24.789Z,88.26
2023-01-17T00:17:51.659Z,88.18
2023-01-17T00:20:39.082Z,88.16
2023-01-17T00:23:42.732Z,86.77
2023-01-17T00:26:13.120Z,86.77
2023-01-17T00:28:41.366Z,88.14
2023-01-17T00:31:09.450Z,87.93
2023-01-17T00:33:36.467Z,86.68
2023-01-17T00:36:04.359Z,87.02
2023-01-17T00:38:33.320Z,86.20
2023-01-17T00:41:08.314Z,85.85
2023-01-17T00:43:53.262Z,86.03
2023-01-17T00:46:38.720Z,85.44
2023-01-17T00:49:24.469Z,85.52
2023-01-17T00:52:09.821Z,85.23
2023-01-17T00:54:54.625Z,84.94
2023-01-17T00:57:39.488Z,84.92
2023-01-17T01:00:25.490Z,83.71
2023-01-17T01:03:10.751Z,84.13
2023-01-17T01:05:56.731Z,83.77
2023-01-17T01:08:45.388Z,84.04
2023-01-17T01:11:36.009Z,84.81
2023-01-17T01:14:21.989Z,84.23
2023-01-17T01:17:07.353Z,84.29
2023-01-17T01:19:52.878Z,83.96
2023-01-17T01:22:37.830Z,83.26
2023-01-17T01:25:23.217Z,83.96
2023-01-17T01:28:08.515Z,82.14
2023-01-17T01:30:53.929Z,82.66
2023-01-17T01:33:20.581Z,82.49
2023-01-17T01:35:53.621Z,83.65
2023-01-17T01:38:22.523Z,83.27
2023-01-17T01:40:52.035Z,82.63
2023-01-17T01:43:21.908Z,82.23
2023-01-17T01:45:57.301Z,82.08
2023-01-17T01:48:39.575Z,81.86
2023-01-17T01:51:10.262Z,82.20
2023-01-17T01:53:40.712Z,81.49
2023-01-17T01:56:11.286Z,82.21
2023-01-17T01:58:40.027Z,82.20
2023-01-17T02:01:08.425Z,82.30
2023-01-17T02:03:37.575Z,81.99
2023-01-17T02:06:24.791Z,82.84
2023-01-17T02:08:51.872Z,82.40
2023-01-17T02:11:18.721Z,82.95
2023-01-17T02:13:45.258Z,81.82
2023-01-17T02:16:30.976Z,81.97
2023-01-17T02:19:32.930Z,83.09
2023-01-17T02:22:08.107Z,82.57
2023-01-17T02:24:53.640Z,82.78
2023-01-17T02:27:28.403Z,83.21
2023-01-17T02:30:41.677Z,83.40
2023-01-17T02:33:55.752Z,83.18
2023-01-17T02:36:46.053Z,83.00
2023-01-17T02:39:39.297Z,83.23
2023-01-17T02:42:11.010Z,83.29
2023-01-17T02:44:44.390Z,83.35
2023-01-17T02:47:24.364Z,83.59
2023-01-17T02:49:53.727Z,83.57
2023-01-17T02:52:50.848Z,84.01
2023-01-17T02:55:48.225Z,83.62
2023-01-17T02:58:17.539Z,82.58
2023-01-17T03:01:20.649Z,82.59
2023-01-17T03:03:54.912Z,81.36
2023-01-17T03:06:51.459Z,81.52
2023-01-17T03:09:19.084Z,81.41
2023-01-17T03:11:45.623Z,80.77
2023-01-17T03:14:12.437Z,80.73
2023-01-17T03:16:39.535Z,79.95
2023-01-17T03:19:05.944Z,78.96
2023-01-17T03:21:32.371Z,79.45
2023-01-17T03:23:58.797Z,78.89
2023-01-17T03:26:25.232Z,77.62
2023-01-17T03:28:51.737Z,77.57
2023-01-17T03:31:19.896Z,77.65
2023-01-17T03:33:46.808Z,76.77
2023-01-17T03:36:13.316Z,76.82
2023-01-17T03:38:39.787Z,76.96
2023-01-17T03:41:07.297Z,75.87
2023-01-17T03:43:33.729Z,76.39
2023-01-17T03:46:08.309Z,76.36
2023-01-17T03:48:34.690Z,76.72
2023-01-17T03:51:01.105Z,76.86
2023-01-17T03:53:27.559Z,75.65
2023-01-17T03:55:54.016Z,75.94
2023-01-17T03:58:20.801Z,76.03
2023-01-17T04:00:47.281Z,74.95
2023-01-17T04:03:13.752Z,74.45
2023-01-17T04:05:40.274Z,75.29
2023-01-17T04:08:07.332Z,76.41
2023-01-17T04:10:33.934Z,75.74
2023-01-17T04:13:00.336Z,74.57
2023-01-17T04:15:26.781Z,73.90
2023-01-17T04:17:53.303Z,74.08
2023-01-17T04:20:33.853Z,74.61
2023-01-17T04:23:00.620Z,75.64
2023-01-17T04:25:30.026Z,76.43
2023-01-17T04:27:57.750Z,78.48
2023-01-17T04:30:24.616Z,78.71
2023-01-17T04:32:51.234Z,79.60
2023-01-17T04:35:17.620Z,79.53
2023-01-17T04:37:44.054Z,79.92
2023-01-17T04:40:11.626Z,79.53
2023-01-17T04:42:38.208Z,80.55
2023-01-17T04:45:05.357Z,81.03
2023-01-17T04:47:33.678Z,79.69
2023-01-17T04:50:00.171Z,80.77
2023-01-17T04:52:26.599Z,80.03
2023-01-17T04:54:53.055Z,79.71
2023-01-17T04:57:20.026Z,80.73
2023-01-17T04:59:47.140Z,80.34
2023-01-17T05:02:14.181Z,80.37
2023-01-17T05:04:40.779Z,79.98
2023-01-17T05:07:07.225Z,80.50
2023-01-17T05:09:33.666Z,80.08
2023-01-17T05:12:00.171Z,80.10
2023-01-17T05:14:26.945Z,80.19
2023-01-17T05:16:54.996Z,80.39
2023-01-17T05:19:22.640Z,80.66
2023-01-17T05:21:49.353Z,80.27
2023-01-17T05:24:15.917Z,80.79
2023-01-17T05:26:43.219Z,80.28
2023-01-17T05:29:10.605Z,81.12
2023-01-17T05:31:37.369Z,81.30
2023-01-17T05:34:03.989Z,81.45
2023-01-17T05:36:30.567Z,81.71
2023-01-17T05:38:56.949Z,81.63
2023-01-17T05:41:23.437Z,82.50
2023-01-17T05:43:49.833Z,82.89
2023-01-17T05:46:18.062Z,83.22
2023-01-17T05:48:44.673Z,82.98
2023-01-17T05:51:11.070Z,82.92
2023-01-17T05:53:37.558Z,82.98
2023-01-17T05:56:04.193Z,83.24
2023-01-17T05:58:30.604Z,82.88
2023-01-17T06:00:57.152Z,83.07
2023-01-17T06:03:23.650Z,83.03
2023-01-17T06:05:50.252Z,83.04
2023-01-17T06:08:16.778Z,83.07
2023-01-17T06:10:43.596Z,82.50
2023-01-17T06:13:13.600Z,82.75
2023-01-17T06:15:40.174Z,82.74
2023-01-17T06:18:14.199Z,82.79
2023-01-17T06:20:41.462Z,82.77
2023-01-17T06:23:11.498Z,81.87
2023-01-17T06:25:39.158Z,82.34
2023-01-17T06:28:07.398Z,83.53
2023-01-17T06:30:34.267Z,82.82
2023-01-17T06:33:00.882Z,83.85
2023-01-17T06:35:27.401Z,82.65
2023-01-17T06:37:55.475Z,84.00
2023-01-17T06:40:22.569Z,83.93
2023-01-17T06:42:48.949Z,84.17
2023-01-17T06:45:15.546Z,84.53
2023-01-17T06:47:42.426Z,85.57
2023-01-17T06:50:12.304Z,85.94
2023-01-17T06:52:38.916Z,85.86
2023-01-17T06:55:06.240Z,87.35
2023-01-17T06:57:33.439Z,85.96
2023-01-17T06:59:59.910Z,85.87
2023-01-17T07:02:26.430Z,85.80
2023-01-17T07:04:52.880Z,86.31
2023-01-17T07:07:19.334Z,86.22
2023-01-17T07:09:45.741Z,86.73
2023-01-17T07:12:12.305Z,86.06
2023-01-17T07:14:38.740Z,86.38
2023-01-17T07:17:05.799Z,86.55
2023-01-17T07:19:32.259Z,88.08
2023-01-17T07:21:58.909Z,88.48
2023-01-17T07:24:25.336Z,88.84
2023-01-17T07:26:52.224Z,89.26
2023-01-17T07:29:19.183Z,88.85
2023-01-17T07:31:45.619Z,88.43
2023-01-17T07:34:12.064Z,88.47
2023-01-17T07:36:38.530Z,88.28
2023-01-17T07:39:06.392Z,87.43
2023-01-17T07:41:34.712Z,88.35
2023-01-17T07:44:01.244Z,89.12
2023-01-17T07:46:27.786Z,89.57
2023-01-17T07:48:54.295Z,89.48
2023-01-17T07:51:20.813Z,88.75
2023-01-17T07:53:47.199Z,87.82
2023-01-17T07:56:13.722Z,87.65
2023-01-17T07:58:40.271Z,86.96
2023-01-17T08:01:09.994Z,83.66
2023-01-17T08:03:40.187Z,79.60
2023-01-17T08:06:29.279Z,77.84
2023-01-17T08:08:58.829Z,75.70
2023-01-17T08:11:25.782Z,74.06
2023-01-17T08:13:57.355Z,72.95
2023-01-17T08:16:27.055Z,69.95
2023-01-17T08:18:55.133Z,69.15
2023-01-17T08:21:21.689Z,65.90
2023-01-17T08:23:51.467Z,69.68
2023-01-17T08:26:22.292Z,67.46
2023-01-17T08:28:55.062Z,64.73
2023-01-17T08:31:21.610Z,62.90
2023-01-17T08:33:48.054Z,63.43
2023-01-17T08:36:14.433Z,62.02
2023-01-17T08:38:40.905Z,61.40
2023-01-17T08:41:07.316Z,59.80
2023-01-17T08:43:33.938Z,59.03
2023-01-17T08:46:01.227Z,58.93
2023-01-17T08:48:27.742Z,58.83
2023-01-17T08:50:54.249Z,60.38
2023-01-17T08:53:23.105Z,60.58
2023-01-17T08:55:57.848Z,60.02
2023-01-17T08:58:24.302Z,59.29
2023-01-17T09:00:50.979Z,57.75
2023-01-17T09:03:17.423Z,55.05
2023-01-17T09:05:43.849Z,54.10
2023-01-17T09:08:10.292Z,53.03
2023-01-17T09:10:37.127Z,53.02
2023-01-17T09:13:06.670Z,53.22
2023-01-17T09:15:33.124Z,50.73
2023-01-17T09:18:01.285Z,49.65
2023-01-17T09:20:30.158Z,50.95
2023-01-17T09:22:57.377Z,49.04
2023-01-17T09:25:23.784Z,49.12
2023-01-17T09:27:50.250Z,49.06
2023-01-17T09:30:17.166Z,48.75
2023-01-17T09:32:43.636Z,47.76
2023-01-17T09:35:10.268Z,48.77
2023-01-17T09:37:37.010Z,47.97
2023-01-17T09:40:03.751Z,46.29
2023-01-17T09:42:39.233Z,45.94
2023-01-17T09:45:14.648Z,44.97
2023-01-17T09:47:48.126Z,43.76
2023-01-17T09:50:31.809Z,40.75
2023-01-17T09:53:02.669Z,39.65
2023-01-17T09:55:37.024Z,38.28
2023-01-17T09:58:10.353Z,36.04
2023-01-17T10:01:12.360Z,36.43
2023-01-17T10:04:03.242Z,38.84
2023-01-17T10:06:51.945Z,38.47
2023-01-17T10:09:35.197Z,39.41
2023-01-17T10:12:07.751Z,38.64
2023-01-17T10:15:03.024Z,39.17
2023-01-17T10:18:03.557Z,40.33
2023-01-17T10:21:05.294Z,39.55
2023-01-17T10:23:46.520Z,41.87
2023-01-17T10:26:25.226Z,43.14
2023-01-17T10:28:55.399Z,43.21
2023-01-17T10:31:44.972Z,45.73
2023-01-17T10:34:23.141Z,47.25
2023-01-17T10:36:55.128Z,45.96
2023-01-17T10:39:26.279Z,43.81
2023-01-17T10:42:00.702Z,39.95
2023-01-17T10:44:30.205Z,39.72
2023-01-17T10:47:08.652Z,42.22
2023-01-17T10:49:40.139Z,39.37
2023-01-17T10:52:19.033Z,35.46
2023-01-17T10:55:08.612Z,35.22
2023-01-17T10:57:44.292Z,34.87
2023-01-17T11:00:43.917Z,33.23
2023-01-17T11:03:12.494Z,32.48
2023-01-17T11:05:41.132Z,32.53
2023-01-17T11:08:08.381Z,32.53
2023-01-17T11:10:41.985Z,34.49
2023-01-17T11:13:23.759Z,32.51
2023-01-17T11:15:57.404Z,33.31
2023-01-17T11:18:28.238Z,32.77
2023-01-17T11:21:09.443Z,33.48
2023-01-17T11:23:36.059Z,36.88
2023-01-17T11:26:05.947Z,39.44
2023-01-17T11:28:34.547Z,40.83
2023-01-17T11:31:04.222Z,43.27
2023-01-17T11:33:45.918Z,43.42
2023-01-17T11:36:19.646Z,43.26
2023-01-17T11:39:02.992Z,43.62
2023-01-17T11:41:42.111Z,43.18
2023-01-17T11:44:28.013Z,43.86
2023-01-17T11:47:15.631Z,44.99
2023-01-17T11:49:44.463Z,44.57
2023-01-17T11:52:17.072Z,43.68
2023-01-17T11:54:47.391Z,43.78
2023-01-17T11:57:22.667Z,43.68
2023-01-17T11:59:51.616Z,44.50
2023-01-17T12:02:37.717Z,43.49
2023-01-17T12:05:25.329Z,46.33
2023-01-17T12:08:03.752Z,45.76
2023-01-17T12:10:38.590Z,46.98
2023-01-17T12:13:35.107Z,47.23
2023-01-17T12:16:32.698Z,48.36
2023-01-17T12:19:22.235Z,47.49
2023-01-17T12:22:14.026Z,48.73
2023-01-17T12:24:40.462Z,48.39
2023-01-17T12:27:38.587Z,48.83
2023-01-17T12:30:32.767Z,48.90
2023-01-17T12:33:19.180Z,49.88
2023-01-17T12:35:52.812Z,50.23
2023-01-17T12:38:39.812Z,50.11
2023-01-17T12:41:09.633Z,50.84
2023-01-17T12:43:45.952Z,52.47
2023-01-17T12:46:21.340Z,51.21
2023-01-17T12:48:54.366Z,49.53
2023-01-17T12:51:30.889Z,49.07
2023-01-17T12:54:15.998Z,49.89
2023-01-17T12:56:54.105Z,50.03
2023-01-17T12:59:26.517Z,49.45
2023-01-17T13:01:58.273Z,50.11
2023-01-17T13:04:58.097Z,48.87
2023-01-17T13:07:32.687Z,47.79
2023-01-17T13:10:21.231Z,45.83
2023-01-17T13:12:49.468Z,44.97
2023-01-17T13:15:18.322Z,43.29
2023-01-17T13:17:49.777Z,42.40
2023-01-17T13:20:28.801Z,42.26
2023-01-17T13:23:01.511Z,41.81
2023-01-17T13:25:45.957Z,41.45
2023-01-17T13:28:40.364Z,42.40
2023-01-17T13:31:45.521Z,42.92
2023-01-17T13:34:56.253Z,44.51
2023-01-17T13:37:45.716Z,44.13
2023-01-17T13:40:29.553Z,45.65
2023-01-17T13:43:02.249Z,45.67
2023-01-17T13:45:34.842Z,45.57
2023-01-17T13:48:14.754Z,44.58
2023-01-17T13:50:41.160Z,44.91
2023-01-17T13:53:35.536Z,43.83
2023-01-17T13:56:31.457Z,43.78
2023-01-17T13:59:03.877Z,46.31
2023-01-17T14:01:34.697Z,46.99
2023-01-17T14:04:04.951Z,47.75
2023-01-17T14:06:46.421Z,49.05
2023-01-17T14:09:12.782Z,49.90
2023-01-17T14:12:04.240Z,50.15
2023-01-17T14:14:40.025Z,50.61
2023-01-17T14:17:28.185Z,49.72
2023-01-17T14:20:01.520Z,50.15
2023-01-17T14:22:31.414Z,50.41
2023-01-17T14:25:15.175Z,50.05
2023-01-17T14:27:54.464Z,51.61
2023-01-17T14:30:25.776Z,53.01
2023-01-17T14:33:01.429Z,53.37
2023-01-17T14:35:39.010Z,54.46
2023-01-17T14:38:20.262Z,55.54
2023-01-17T14:41:00.502Z,56.06
2023-01-17T14:43:32.269Z,56.65
2023-01-17T14:46:05.023Z,56.52
2023-01-17T14:48:31.567Z,58.14
2023-01-17T14:51:01.992Z,57.47
2023-01-17T14:53:31.439Z,58.48
2023-01-17T14:55:59.534Z,59.32
2023-01-17T14:58:34.645Z,59.35
2023-01-17T15:01:12.970Z,60.13
2023-01-17T15:03:54.177Z,61.04
2023-01-17T15:06:29.144Z,62.18
2023-01-17T15:08:55.698Z,62.25
2023-01-17T15:11:28.138Z,62.58
2023-01-17T15:13:57.541Z,63.72
2023-01-17T15:16:30.190Z,67.82
2023-01-17T15:18:57.740Z,65.17
2023-01-17T15:21:28.029Z,66.57
2023-01-17T15:23:57.376Z,65.92
2023-01-17T15:26:27.030Z,65.96
2023-01-17T15:29:03.103Z,65.95
2023-01-17T15:32:00.041Z,67.69
2023-01-17T15:34:30.990Z,67.36
2023-01-17T15:37:01.298Z,67.91
2023-01-17T15:39:31.860Z,67.99
2023-01-17T15:42:02.427Z,68.53
2023-01-17T15:44:49.383Z,68.76
2023-01-17T15:47:38.480Z,70.76
2023-01-17T15:50:19.951Z,72.31
2023-01-17T15:52:51.917Z,71.24
2023-01-17T15:55:45.368Z,72.73
2023-01-17T15:58:30.091Z,72.55
2023-01-17T16:00:57.068Z,72.87
2023-01-17T16:03:32.104Z,75.99
2023-01-17T16:06:01.113Z,74.53
2023-01-17T16:08:38.777Z,75.61
2023-01-17T16:11:07.068Z,75.28
2023-01-17T16:13:38.528Z,75.47
2023-01-17T16:16:23.248Z,75.85
2023-01-17T16:18:57.712Z,76.05
2023-01-17T16:21:29.469Z,75.51
2023-01-17T16:23:56.770Z,75.49
2023-01-17T16:26:24.268Z,76.29
2023-01-17T16:28:51.683Z,76.04
2023-01-17T16:31:18.871Z,77.07
2023-01-17T16:33:48.139Z,76.87
2023-01-17T16:36:16.392Z,77.55
2023-01-17T16:38:44.694Z,77.49
2023-01-17T16:41:11.637Z,78.17
2023-01-17T16:43:38.183Z,79.21
2023-01-17T16:46:05.893Z,78.44
2023-01-17T16:48:32.529Z,78.19
2023-01-17T16:50:59.395Z,78.20
2023-01-17T16:53:28.012Z,77.96
2023-01-17T16:55:58.012Z,78.41
2023-01-17T16:58:25.045Z,79.63
2023-01-17T17:00:51.820Z,78.73
2023-01-17T17:03:20.808Z,79.94
2023-01-17T17:05:55.807Z,79.57
2023-01-17T17:08:23.101Z,80.07
2023-01-17T17:10:50.109Z,80.59
2023-01-17T17:13:16.661Z,80.83
2023-01-17T17:15:44.037Z,82.13
2023-01-17T17:18:15.350Z,82.56
2023-01-17T17:20:42.084Z,82.29
2023-01-17T17:23:09.984Z,82.10
2023-01-17T17:25:37.440Z,82.83
2023-01-17T17:28:04.860Z,82.95
2023-01-17T17:30:31.550Z,83.37
2023-01-17T17:32:58.434Z,83.16
2023-01-17T17:35:24.898Z,82.97
2023-01-17T17:37:51.593Z,82.39
2023-01-17T17:40:18.169Z,82.24
2023-01-17T17:42:44.611Z,82.53
2023-01-17T17:45:11.273Z,83.00
2023-01-17T17:47:37.665Z,84.01
2023-01-17T17:50:04.349Z,83.75
2023-01-17T17:52:32.353Z,83.81
2023-01-17T17:54:59.016Z,83.68
2023-01-17T17:57:25.479Z,83.93
2023-01-17T17:59:51.886Z,84.14
2023-01-17T18:02:18.322Z,83.97
2023-01-17T18:04:44.783Z,84.91
2023-01-17T18:07:11.223Z,84.92
2023-01-17T18:09:39.169Z,84.71
2023-01-17T18:12:05.764Z,85.24
2023-01-17T18:14:32.398Z,85.27
2023-01-17T18:16:58.891Z,85.31
2023-01-17T18:19:26.433Z,84.78
2023-01-17T18:21:53.157Z,84.90
2023-01-17T18:24:24.551Z,85.27
2023-01-17T18:26:56.880Z,85.40
2023-01-17T18:29:25.228Z,85.67
2023-01-17T18:31:54.977Z,84.91
2023-01-17T18:34:24.340Z,84.95
2023-01-17T18:36:51.849Z,84.73
2023-01-17T18:39:24.455Z,84.92
2023-01-17T18:41:51.566Z,85.03
2023-01-17T18:44:21.757Z,85.40
2023-01-17T18:46:50.099Z,85.44
2023-01-17T18:49:19.164Z,85.62
2023-01-17T18:51:49.098Z,85.68
2023-01-17T18:54:16.392Z,85.59
2023-01-17T18:56:42.953Z,85.91
2023-01-17T18:59:12.507Z,86.20
2023-01-17T19:01:42.277Z,86.30
2023-01-17T19:04:09.345Z,86.32
2023-01-17T19:06:38.312Z,86.43
2023-01-17T19:09:07.402Z,86.39
2023-01-17T19:11:34.889Z,87.49
2023-01-17T19:14:01.334Z,86.91
2023-01-17T19:16:30.298Z,86.73
2023-01-17T19:19:01.589Z,86.30
2023-01-17T19:21:29.375Z,87.28
2023-01-17T19:23:57.253Z,87.11
2023-01-17T19:26:27.098Z,87.14
2023-01-17T19:28:55.954Z,86.28
2023-01-17T19:31:25.158Z,86.63
2023-01-17T19:33:54.209Z,86.45
2023-01-17T19:36:23.592Z,85.94
2023-01-17T19:39:03.347Z,85.77
2023-01-17T19:41:32.173Z,86.26
2023-01-17T19:44:00.809Z,86.40
2023-01-17T19:46:27.725Z,85.89
2023-01-17T19:48:55.827Z,85.90
2023-01-17T19:51:23.429Z,86.32
2023-01-17T19:53:50.333Z,86.05
2023-01-17T19:56:19.181Z,86.59
2023-01-17T19:58:46.849Z,87.10
2023-01-17T20:01:19.442Z,86.55
2023-01-17T20:03:47.156Z,86.67
2023-01-17T20:06:16.031Z,86.99
2023-01-17T20:08:43.350Z,86.63
2023-01-17T20:11:15.347Z,86.73
2023-01-17T20:13:42.260Z,87.05
2023-01-17T20:16:11.040Z,86.95
2023-01-17T20:18:38.146Z,86.97
2023-01-17T20:21:06.834Z,87.22
2023-01-17T20:23:38.725Z,87.43
2023-01-17T20:26:06.138Z,87.58
2023-01-17T20:28:34.584Z,87.73
2023-01-17T20:31:09.207Z,87.83
2023-01-17T20:33:36.426Z,87.65
2023-01-17T20:36:10.283Z,87.76
2023-01-17T20:38:43.952Z,87.69
2023-01-17T20:41:29.117Z,88.16
2023-01-17T20:43:57.857Z,87.62
2023-01-17T20:46:40.615Z,87.87
2023-01-17T20:49:18.607Z,88.23
2023-01-17T20:51:46.518Z,87.98
2023-01-17T20:54:15.585Z,88.38
2023-01-17T20:56:42.607Z,88.19
2023-01-17T20:59:12.798Z,88.22
2023-01-17T21:01:39.491Z,88.79
2023-01-17T21:04:09.950Z,88.43
2023-01-17T21:06:39.583Z,88.45
2023-01-17T21:09:08.678Z,89.01
2023-01-17T21:11:35.814Z,88.89
2023-01-17T21:14:02.243Z,88.63
2023-01-17T21:16:28.800Z,88.50
2023-01-17T21:18:55.563Z,88.48
2023-01-17T21:21:25.271Z,87.35
2023-01-17T21:23:54.895Z,88.15
2023-01-17T21:26:22.525Z,87.74
2023-01-17T21:28:50.675Z,88.09
2023-01-17T21:31:24.360Z,87.99
2023-01-17T21:33:52.319Z,87.83
2023-01-17T21:36:20.200Z,87.76
2023-01-17T21:38:52.385Z,88.16
2023-01-17T21:41:20.971Z,88.38
2023-01-17T21:43:48.263Z,88.16
2023-01-17T21:46:14.817Z,88.25
2023-01-17T21:48:41.262Z,87.94
2023-01-17T21:51:08.484Z,88.65
2023-01-17T21:53:39.364Z,88.20
2023-01-17T21:56:29.247Z,88.48
2023-01-17T21:58:57.197Z,88.68
2023-01-17T22:01:26.857Z,88.94
2023-01-17T22:04:01.566Z,88.41
2023-01-17T22:06:34.514Z,88.44
2023-01-17T22:09:01.043Z,87.82
2023-01-17T22:11:30.190Z,88.57
2023-01-17T22:13:58.969Z,88.43
2023-01-17T22:16:26.425Z,88.62
2023-01-17T22:18:52.897Z,89.13
2023-01-17T22:21:20.569Z,88.94
2023-01-17T22:23:49.187Z,89.06
2023-01-17T22:26:16.514Z,88.81
2023-01-17T22:28:43.258Z,89.31
2023-01-17T22:31:24.471Z,89.04
2023-01-17T22:33:59.604Z,89.25
2023-01-17T22:36:26.717Z,88.82
2023-01-17T22:38:53.237Z,89.17
2023-01-17T22:41:23.360Z,89.62
2023-01-17T22:43:52.455Z,89.93
2023-01-17T22:46:21.615Z,89.68
2023-01-17T22:48:48.890Z,90.04
2023-01-17T22:51:17.560Z,90.08
2023-01-17T22:53:47.201Z,90.08
2023-01-17T22:56:22.165Z,89.63
2023-01-17T22:58:49.134Z,90.65
2023-01-17T23:01:18.201Z,90.83
2023-01-17T23:03:46.377Z,90.74
2023-01-17T23:06:14.550Z,90.41
2023-01-17T23:08:43.715Z,90.54
2023-01-17T23:11:43.278Z,90.17
2023-01-17T23:14:20.650Z,89.70
2023-01-17T23:17:20.675Z,89.25
2023-01-17T23:19:48.177Z,89.02
2023-01-17T23:22:17.650Z,89.80
2023-01-17T23:24:48.721Z,89.56
2023-01-17T23:27:35.298Z,89.54
2023-01-17T23:30:04.525Z,90.12
2023-01-17T23:32:31.152Z,90.97
2023-01-17T23:34:57.648Z,90.98
2023-01-17T23:37:47.012Z,90.41
2023-01-17T23:40:13.567Z,90.26
2023-01-17T23:43:03.178Z,90.38
2023-01-17T23:45:29.632Z,90.87
2023-01-17T23:47:56.077Z,90.85
2023-01-17T23:50:22.496Z,91.86
2023-01-17T23:52:48.866Z,92.11
2023-01-17T23:55:15.364Z,91.75
2023-01-17T23:57:41.807Z,90.76
